createdAt,value
2018-07-14T00:00:02.409Z,16.3
2018-07-14T00:05:02.839Z,16.3
2018-07-14T00:10:02.524Z,16.3
2018-07-14T00:15:02.580Z,16.2
2018-07-14T00:20:03.115Z,16.2
2018-07-14T00:25:02.502Z,16.2
2018-07-14T00:30:02.893Z,16.0
2018-07-14T00:35:02.392Z,15.8
2018-07-14T00:40:02.822Z,15.8
2018-07-14T00:45:03.184Z,15.8
2018-07-14T00:50:02.541Z,15.6
2018-07-14T00:55:02.848Z,15.6
2018-07-14T01:00:03.272Z,15.6
2018-07-14T01:05:02.723Z,15.5
2018-07-14T01:10:03.170Z,15.5
2018-07-14T01:15:02.586Z,15.3
2018-07-14T01:20:03.023Z,15.3
2018-07-14T01:25:02.498Z,15.1
2018-07-14T01:30:02.976Z,15.1
2018-07-14T01:35:02.405Z,15.1
2018-07-14T01:40:02.906Z,15.1
2018-07-14T01:45:02.342Z,15.1
2018-07-14T01:50:02.795Z,15.0
2018-07-14T01:55:03.247Z,15.0
2018-07-14T02:00:02.620Z,14.8
2018-07-14T02:05:03.240Z,14.8
2018-07-14T02:10:02.678Z,14.8
2018-07-14T02:15:03.119Z,14.8
2018-07-14T02:20:02.534Z,14.6
2018-07-14T02:25:03.015Z,14.6
2018-07-14T02:30:02.409Z,14.6
2018-07-14T02:35:02.897Z,14.6
2018-07-14T02:40:02.285Z,14.6
2018-07-14T02:45:02.709Z,14.6
2018-07-14T02:50:03.208Z,14.5
2018-07-14T02:55:02.766Z,14.3
2018-07-14T03:00:03.634Z,14.5
2018-07-14T03:05:03.076Z,14.3
2018-07-14T03:10:02.768Z,14.3
2018-07-14T03:15:03.255Z,14.3
2018-07-14T03:20:02.690Z,14.3
2018-07-14T03:25:03.164Z,14.1
2018-07-14T03:30:02.544Z,14.1
2018-07-14T03:35:02.996Z,14.1
2018-07-14T03:40:02.457Z,14.1
2018-07-14T03:45:02.910Z,14.0
2018-07-14T03:50:02.428Z,14.1
2018-07-14T03:55:02.955Z,14.1
2018-07-14T04:00:02.363Z,14.1
2018-07-14T04:05:02.883Z,14.1
2018-07-14T04:10:02.437Z,14.3
2018-07-14T04:15:03.054Z,14.3
2018-07-14T04:20:02.628Z,14.3
2018-07-14T04:25:03.212Z,14.3
2018-07-14T04:30:02.923Z,14.5
2018-07-14T04:35:02.514Z,14.5
2018-07-14T04:40:03.042Z,14.6
2018-07-14T04:45:02.481Z,14.3
2018-07-14T04:50:02.882Z,14.5
2018-07-14T04:55:02.284Z,14.3
2018-07-14T05:00:02.731Z,14.3
2018-07-14T05:05:03.131Z,14.3
2018-07-14T05:10:02.641Z,14.3
2018-07-14T05:15:03.090Z,14.5
2018-07-14T05:20:02.543Z,14.8
2018-07-14T05:25:03.272Z,15.1
2018-07-14T05:30:02.707Z,15.1
2018-07-14T05:35:03.578Z,15.5
2018-07-14T05:40:03.131Z,15.6
2018-07-14T05:45:02.598Z,15.6
2018-07-14T05:50:03.213Z,15.6
2018-07-14T05:55:02.661Z,15.8
2018-07-14T06:00:03.110Z,16.2
2018-07-14T06:05:02.484Z,16.3
2018-07-14T06:10:02.939Z,16.6
2018-07-14T06:15:02.343Z,16.6
2018-07-14T06:20:02.793Z,16.7
2018-07-14T06:25:02.275Z,17.1
2018-07-14T06:30:02.701Z,17.3
2018-07-14T06:35:03.088Z,17.5
2018-07-14T06:40:02.579Z,17.7
2018-07-14T06:45:02.993Z,17.8
2018-07-14T06:50:02.485Z,18.2
2018-07-14T06:55:03.000Z,18.6
2018-07-14T07:00:02.494Z,18.8
2018-07-14T07:05:03.020Z,18.8
2018-07-14T07:10:02.522Z,18.7
2018-07-14T07:15:03.015Z,19.1
2018-07-14T07:20:02.434Z,18.7
2018-07-14T07:25:02.856Z,19.0
2018-07-14T07:30:02.346Z,19.2
2018-07-14T07:35:02.916Z,19.3
2018-07-14T07:40:02.686Z,20.0
2018-07-14T07:45:03.149Z,20.0
2018-07-14T07:50:02.632Z,20.8
2018-07-14T07:55:03.145Z,20.6
2018-07-14T08:00:02.569Z,21.3
2018-07-14T08:05:03.089Z,21.6
2018-07-14T08:15:02.284Z,21.7
2018-07-14T08:20:02.805Z,21.7
2018-07-14T08:30:03.030Z,23.1
2018-07-14T08:35:02.553Z,23.2
2018-07-14T08:40:03.118Z,23.7
2018-07-14T08:45:02.570Z,23.7
2018-07-14T08:50:03.031Z,23.3
2018-07-14T08:55:02.473Z,24.2
2018-07-14T09:00:02.972Z,24.7
2018-07-14T09:05:02.376Z,23.6
2018-07-14T09:10:02.887Z,24.6
2018-07-14T09:15:02.411Z,25.0
2018-07-14T09:20:02.889Z,25.6
2018-07-14T09:25:02.379Z,26.1
2018-07-14T09:30:02.785Z,25.8
2018-07-14T09:35:03.251Z,25.6
2018-07-14T09:40:02.778Z,26.2
2018-07-14T09:45:03.209Z,25.5
2018-07-14T09:50:02.717Z,26.7
2018-07-14T09:55:03.151Z,27.7
2018-07-14T10:00:02.507Z,27.7
2018-07-14T10:05:02.979Z,27.5
2018-07-14T10:10:02.581Z,27.1
2018-07-14T10:15:03.249Z,27.7
2018-07-14T10:20:02.505Z,27.3
2018-07-14T10:25:03.062Z,28.2
2018-07-14T10:30:02.709Z,27.2
2018-07-14T10:35:03.197Z,27.7
2018-07-14T10:40:02.687Z,28.1
2018-07-14T10:45:03.121Z,28.3
2018-07-14T10:50:02.659Z,28.1
2018-07-14T10:55:03.158Z,28.3
2018-07-14T11:00:02.969Z,28.2
2018-07-14T11:05:02.489Z,28.5
2018-07-14T11:10:03.019Z,29.5
2018-07-14T11:15:02.446Z,28.0
2018-07-14T11:20:02.940Z,26.7
2018-07-14T11:25:02.302Z,28.5
2018-07-14T11:30:02.781Z,29.0
2018-07-14T11:35:02.354Z,27.7
2018-07-14T11:40:02.907Z,27.7
2018-07-14T11:45:02.387Z,27.7
2018-07-14T11:50:02.915Z,29.5
2018-07-14T11:55:02.312Z,29.2
2018-07-14T12:00:02.836Z,29.5
2018-07-14T12:05:02.309Z,29.1
2018-07-14T12:10:02.769Z,29.2
2018-07-14T12:15:03.169Z,27.1
2018-07-14T12:20:02.659Z,30.0
2018-07-14T12:25:03.115Z,29.0
2018-07-14T12:30:02.556Z,28.6
2018-07-14T12:35:03.087Z,30.1
2018-07-14T12:40:02.529Z,30.0
2018-07-14T12:45:02.976Z,29.2
2018-07-14T12:50:02.434Z,30.2
2018-07-14T12:55:02.931Z,30.2
2018-07-14T13:00:02.416Z,30.0
2018-07-14T13:05:03.220Z,30.2
2018-07-14T13:10:02.646Z,31.2
2018-07-14T13:15:03.115Z,31.6
2018-07-14T13:20:02.597Z,31.1
2018-07-14T13:25:03.023Z,29.7
2018-07-14T13:30:02.531Z,30.1
2018-07-14T13:35:02.345Z,30.6
2018-07-14T13:40:02.823Z,30.2
2018-07-14T13:45:02.273Z,30.6
2018-07-14T13:50:02.788Z,30.2
2018-07-14T13:55:03.152Z,31.0
2018-07-14T14:00:02.651Z,31.6
2018-07-14T14:05:03.326Z,30.6
2018-07-14T14:10:02.845Z,30.0
2018-07-14T14:15:02.350Z,31.1
2018-07-14T14:20:02.857Z,31.2
2018-07-14T14:25:03.011Z,30.5
2018-07-14T14:30:02.550Z,31.7
2018-07-14T14:35:03.188Z,31.3
2018-07-14T14:40:02.745Z,32.0
2018-07-14T14:45:02.691Z,31.2
2018-07-14T14:50:03.146Z,31.8
2018-07-14T14:55:02.576Z,31.2
2018-07-14T15:00:03.199Z,31.7
2018-07-14T15:05:02.725Z,32.0
2018-07-14T15:10:03.232Z,31.6
2018-07-14T15:15:02.662Z,31.7
2018-07-14T15:20:03.196Z,31.2
2018-07-14T15:25:02.633Z,31.7
2018-07-14T15:30:03.163Z,31.7
2018-07-14T15:35:02.610Z,31.3
2018-07-14T15:40:03.213Z,30.8
2018-07-14T15:45:02.635Z,30.7
2018-07-14T15:50:03.190Z,31.6
2018-07-14T15:55:02.698Z,30.8
2018-07-14T16:00:02.350Z,31.3
2018-07-14T16:05:02.800Z,30.7
2018-07-14T16:10:02.328Z,30.5
2018-07-14T16:15:02.748Z,31.1
2018-07-14T16:20:03.193Z,30.3
2018-07-14T16:25:02.447Z,30.6
2018-07-14T16:30:02.962Z,30.5
2018-07-14T16:35:02.454Z,30.6
2018-07-14T16:40:02.958Z,30.6
2018-07-14T16:45:02.447Z,30.2
2018-07-14T16:50:03.123Z,30.7
2018-07-14T16:55:02.841Z,29.6
2018-07-14T17:00:02.266Z,29.1
2018-07-14T17:05:02.834Z,29.5
2018-07-14T17:10:02.307Z,28.8
2018-07-14T17:15:02.799Z,29.7
2018-07-14T17:20:02.263Z,29.2
2018-07-14T17:25:02.768Z,29.5
2018-07-14T17:30:03.222Z,28.6
2018-07-14T17:35:02.704Z,28.6
2018-07-14T17:40:03.202Z,28.5
2018-07-14T17:45:02.587Z,28.3
2018-07-14T17:50:02.962Z,28.0
2018-07-14T17:55:02.378Z,28.2
2018-07-14T18:00:02.821Z,28.0
2018-07-14T18:05:02.277Z,28.5
2018-07-14T18:10:02.724Z,28.1
2018-07-14T18:15:03.194Z,28.2
2018-07-14T18:20:02.711Z,28.0
2018-07-14T18:25:03.195Z,27.3
2018-07-14T18:30:02.670Z,26.2
2018-07-14T18:35:03.183Z,25.6
2018-07-14T18:40:02.615Z,25.3
2018-07-14T18:45:03.109Z,25.2
2018-07-14T18:50:02.469Z,24.5
2018-07-14T18:55:02.915Z,24.0
2018-07-14T19:00:02.302Z,23.6
2018-07-14T19:05:02.875Z,23.2
2018-07-14T19:10:02.384Z,23.2
2018-07-14T19:15:02.943Z,23.1
2018-07-14T19:20:02.356Z,22.7
2018-07-14T19:25:02.831Z,22.6
2018-07-14T19:30:02.591Z,22.3
2018-07-14T19:35:03.239Z,22.3
2018-07-14T19:40:02.503Z,22.1
2018-07-14T19:45:02.921Z,21.8
2018-07-14T19:50:02.545Z,21.7
2018-07-14T19:55:03.051Z,21.3
2018-07-14T20:00:02.826Z,21.3
2018-07-14T20:05:02.766Z,21.2
2018-07-14T20:10:02.245Z,21.2
2018-07-14T20:15:02.734Z,21.0
2018-07-14T20:20:03.182Z,21.0
2018-07-14T20:25:02.647Z,20.7
2018-07-14T20:30:03.139Z,20.7
2018-07-14T20:35:02.870Z,20.6
2018-07-14T20:40:02.363Z,20.2
2018-07-14T20:45:02.664Z,20.2
2018-07-14T20:50:03.154Z,20.2
2018-07-14T20:55:02.667Z,20.1
2018-07-14T21:00:03.042Z,20.0
2018-07-14T21:05:02.492Z,20.1
2018-07-14T21:10:03.012Z,20.0
2018-07-14T21:15:02.467Z,19.7
2018-07-14T21:20:03.024Z,19.5
2018-07-14T21:25:02.498Z,19.5
2018-07-14T21:30:03.253Z,19.3
2018-07-14T21:35:02.780Z,19.2
2018-07-14T21:40:02.270Z,19.2
2018-07-14T21:45:02.966Z,19.2
2018-07-14T21:50:02.330Z,19.0
2018-07-14T21:55:02.690Z,18.8
2018-07-14T22:00:03.095Z,18.7
2018-07-14T22:05:02.526Z,18.6
2018-07-14T22:10:03.008Z,18.5
2018-07-14T22:15:02.537Z,18.5
2018-07-14T22:20:02.768Z,18.5
2018-07-14T22:25:03.224Z,18.5
2018-07-14T22:30:02.709Z,18.2
2018-07-14T22:35:03.182Z,18.1
2018-07-14T22:40:02.696Z,17.8
2018-07-14T22:45:03.160Z,17.7
2018-07-14T22:50:02.608Z,17.7
2018-07-14T22:55:03.030Z,17.7
2018-07-14T23:00:02.444Z,17.5
2018-07-14T23:05:03.245Z,17.5
2018-07-14T23:10:02.930Z,17.3
2018-07-14T23:15:02.425Z,17.2
2018-07-14T23:20:02.927Z,17.1
2018-07-14T23:25:02.350Z,17.1
2018-07-14T23:30:02.773Z,17.1
2018-07-14T23:35:03.206Z,17.0
2018-07-14T23:40:02.706Z,17.0
2018-07-14T23:45:03.129Z,16.7
2018-07-14T23:50:02.503Z,16.7
2018-07-14T23:55:03.030Z,16.6
